Kanata, Canada
Current Conditions -  °F | °C
As of 10:00 AM on Saturday 01 Nov 2014 (Local Time) from CYOW Reporting Station
Broken Clouds Broken Clouds  
Wind Chill: 29°   Ceiling: 15000
Heat Index: 37°   Visibility: 15mi
Dew Point: 27°   Wind: 13mph
Humidity: 65%   Direction: 10°N
Pressure: 30.15"   Gusts: NA
Location:  45.3°N, 75.91°W
Report Text: CYOW 011400Z 01011KT 15SM FEW030 FEW070 BKN150 03/M03 A3015 RMK SC1AC2AC4 SC TR SLP213
Loading
Personal Weather Stations






























Interactive Weather Map
Tropical Storm Tracking
New forecast layout! Learn more

10-Day Weather Forecast

Advertisements
Track Severe Weather on mobile